Kingston, GA (30145)

2:59 PM EST on 三月 06, 2015 (GMT -0500)
Cartersville | Change Station
CLOSE
Current Station
空港
Location: Cartersville,
高度: 764 ft
最寄りの気象観測所

高度 764 ft 34.12 °N, 84.85 °W | Updated 6 minutes ago

所により曇
所により曇
45 °F
体感気温 45 °F
0
風 変数 風 から

今日
高い -- | 低 -- °F
--% 降水確率
昨日
高い -- | 低 -- °F
Precip. -- インチ
7:02 AM 6:40 PM
満月, 99% visible
気圧 30.43 インチ
視程 10.0 マイル

露点温度 29 °F
湿度 53%
降水 0.00 インチ
積雪深 利用不可。
紫外線 5 の内の 12
花粉 7.40 の内の 12
空気品質 利用不可。
Flu Activity 利用不可。
METAR KVPC 061953Z AUTO 00000KT 10SM CLR 07/M02 A3042 RMK AO2 SLP302 T00721017

More Conditions Fewer Conditions

気圧 30.43 インチ
視程 10.0 マイル

露点温度 29 °F
湿度 53%
降水 0.00 インチ
積雪深 利用不可。
紫外線 5 の内の 12
花粉 7.40 の内の 12
空気品質 利用不可。
Flu Activity 利用不可。
METAR KVPC 061953Z AUTO 00000KT 10SM CLR 07/M02 A3042 RMK AO2 SLP302 T00721017

More Conditions Fewer Conditions

10-Day Weather Forecast

Almanac

天文

Mar. 06, 2015 入り
実時間
常用薄明
航海薄明
天文薄明
可視光の長さ
可照時間
Tomorrow will be .
, % of the Moon is Illuminated

今日の極値

State Highs State Lows

Community

WunderPhotos

Upload Photos

1,803,386 写真がアップロードされました!

WunderBlogs® & News

Nearby

空気品質

  空気品質 大気質指数 汚染物質
Not available.

積雪深

Station Depth 高度

地震活動

Distance Mag. Time & Date
Minimum magnitude displayed is 2.5.

沿岸の水温

地名 気温

最寄りの気象観測所